Map

Track Data

SID SEASON NUMBER BASIN SUBBASIN NAME ISO_TIME NATURE LAT LON WMO_WIND WMO_PRES WMO_AGENCY TRACK_TYPE DIST2LAND LANDFALL IFLAG USA_AGENCY USA_ATCF_ID USA_LAT USA_LON USA_RECORD USA_STATUS USA_WIND USA_PRES USA_SSHS USA_R34_NE USA_R34_SE USA_R34_SW USA_R34_NW USA_R50_NE USA_R50_SE USA_R50_SW USA_R50_NW USA_R64_NE USA_R64_SE USA_R64_SW USA_R64_NW USA_POCI USA_ROCI USA_RMW USA_EYE TOKYO_LAT TOKYO_LON TOKYO_GRADE TOKYO_WIND TOKYO_PRES TOKYO_R50_DIR TOKYO_R50_LONG TOKYO_R50_SHORT TOKYO_R30_DIR TOKYO_R30_LONG TOKYO_R30_SHORT TOKYO_LAND CMA_LAT CMA_LON CMA_CAT CMA_WIND CMA_PRES HKO_LAT HKO_LON HKO_CAT HKO_WIND HKO_PRES NEWDELHI_LAT NEWDELHI_LON NEWDELHI_GRADE NEWDELHI_WIND NEWDELHI_PRES NEWDELHI_CI NEWDELHI_DP NEWDELHI_POCI REUNION_LAT REUNION_LON REUNION_TYPE REUNION_WIND REUNION_PRES REUNION_TNUM REUNION_CI REUNION_RMW REUNION_R34_NE REUNION_R34_SE REUNION_R34_SW REUNION_R34_NW REUNION_R50_NE REUNION_R50_SE REUNION_R50_SW REUNION_R50_NW REUNION_R64_NE REUNION_R64_SE REUNION_R64_SW REUNION_R64_NW BOM_LAT BOM_LON BOM_TYPE BOM_WIND BOM_PRES BOM_TNUM BOM_CI BOM_RMW BOM_R34_NE BOM_R34_SE BOM_R34_SW BOM_R34_NW BOM_R50_NE BOM_R50_SE BOM_R50_SW BOM_R50_NW BOM_R64_NE BOM_R64_SE BOM_R64_SW BOM_R64_NW BOM_ROCI BOM_POCI BOM_EYE BOM_POS_METHOD BOM_PRES_METHOD NADI_LAT NADI_LON NADI_CAT NADI_WIND NADI_PRES WELLINGTON_LAT WELLINGTON_LON WELLINGTON_WIND WELLINGTON_PRES DS824_LAT DS824_LON DS824_STAGE DS824_WIND DS824_PRES TD9636_LAT TD9636_LON TD9636_STAGE TD9636_WIND TD9636_PRES TD9635_LAT TD9635_LON TD9635_WIND TD9635_PRES TD9635_ROCI NEUMANN_LAT NEUMANN_LON NEUMANN_CLASS NEUMANN_WIND NEUMANN_PRES MLC_LAT MLC_LON MLC_CLASS MLC_WIND MLC_PRES USA_GUST BOM_GUST BOM_GUST_PER REUNION_GUST REUNION_GUST_PER USA_SEAHGT USA_SEARAD_NE USA_SEARAD_SE USA_SEARAD_SW USA_SEARAD_NW STORM_SPEED STORM_DIR
1941277N07088 1941 63 NI BB NOT_NAMED 1941-10-04 00:00:00 TS 7.20000 87.5000 main 618 597 _________O____ -1 7.20000 87.5000 TC 30 6 307
1941277N07088 1941 63 NI BB NOT_NAMED 1941-10-04 03:00:00 TS 7.36669 87.2734 main 597 556 _________PO___ -1 7.45004 87.1601 TC 30 7.20000 87.5000 1 7 306
1941277N07088 1941 63 NI BB NOT_NAMED 1941-10-04 06:00:00 TS 7.60636 86.9290 main 556 526 _________OP___ -1 7.70000 86.8000 TC 30 7.46591 87.1225 1 9 304
1941277N07088 1941 63 NI BB NOT_NAMED 1941-10-04 09:00:00 TS 7.85371 86.5525 main 528 487 _________PP___ -1 7.94998 86.4075 TC 30 7.72535 86.7458 1 9 303
1941277N07088 1941 63 NI BB NOT_NAMED 1941-10-04 12:00:00 TS 8.08605 86.1856 main 488 447 _________OP___ -1 8.20000 86.0000 TC 30 7.97210 86.3712 1 9 302
1941277N07088 1941 63 NI BB NOT_NAMED 1941-10-04 15:00:00 TS 8.32498 85.8000 main 447 409 _________PO___ -1 8.44996 85.5999 TC 30 8.20000 86.0000 1 9 302
1941277N07088 1941 63 NI BB NOT_NAMED 1941-10-04 18:00:00 TS 8.55456 85.4154 main 412 383 _________OP___ -1 8.70000 85.2000 TC 30 8.40913 85.6308 1 9 301
1941277N07088 1941 63 NI BB NOT_NAMED 1941-10-04 21:00:00 TS 8.77223 85.0405 main 377 345 _________PP___ -1 8.91985 84.8297 TC 30 8.62461 85.2513 1 9 302
1941277N07088 1941 63 NI BB NOT_NAMED 1941-10-05 00:00:00 TS 9.03890 84.6231 main 345 316 _________OP___ -1 9.20000 84.4000 TC 30 8.87780 84.8462 1 11 304
1941277N07088 1941 63 NI BB NOT_NAMED 1941-10-05 03:00:00 TS 9.40256 84.1075 main 316 288 _________PO___ -1 9.60512 83.8150 TC 30 9.20000 84.4000 1 14 307
1941277N07088 1941 63 NI BB NOT_NAMED 1941-10-05 06:00:00 TS 9.85422 83.5185 main 285 265 _________OP___ -1 10.1000 83.2000 TC 30 9.60845 83.8370 1 15 310
1941277N07088 1941 63 NI BB NOT_NAMED 1941-10-05 09:00:00 TS 10.3580 82.9517 main 270 250 _________PP___ -1 10.6274 82.6624 TC 30 10.0885 83.2411 1 15 315
1941277N07088 1941 63 NI BB NOT_NAMED 1941-10-05 12:00:00 TS 10.9121 82.4372 main 250 225 _________OP___ -1 11.2000 82.2000 TC 30 10.6242 82.6745 1 15 320
1941277N07088 1941 63 NI BB NOT_NAMED 1941-10-05 15:00:00 TS 11.4925 81.9913 main 225 169 _________PO___ -1 11.7850 81.7826 TC 30 11.2000 82.2000 1 14 328
1941277N07088 1941 63 NI BB NOT_NAMED 1941-10-05 18:00:00 TS 12.1227 81.6753 main 169 141 _________OP___ -1 12.4000 81.5000 TC 30 11.8453 81.8506 1 14 340
1941277N07088 1941 63 NI BB NOT_NAMED 1941-10-05 21:00:00 TS 12.8096 81.4937 main 141 119 _________PP___ -1 13.1024 81.3823 TC 30 12.5168 81.6051 1 13 349
1941277N07088 1941 63 NI BB NOT_NAMED 1941-10-06 00:00:00 TS 13.4274 81.4285 main 119 118 _________OP___ -1 13.7000 81.4000 TC 30 13.1549 81.4570 1 11 357
1941277N07088 1941 63 NI BB NOT_NAMED 1941-10-06 03:00:00 TS 13.8512 81.4387 main 119 119 _________PO___ -1 14.0025 81.4775 TC 30 13.7000 81.4000 1 7 6
1941277N07088 1941 63 NI BB NOT_NAMED 1941-10-06 06:00:00 TS 14.1296 81.5066 main 133 133 _________OP___ -1 14.2000 81.6000 TC 30 14.0592 81.4131 1 6 16
1941277N07088 1941 63 NI BB NOT_NAMED 1941-10-06 09:00:00 TS 14.4049 81.6047 main 152 141 _________PP___ -1 14.4850 81.7000 TC 30 14.3249 81.5093 1 6 21
1941277N07088 1941 63 NI BB NOT_NAMED 1941-10-06 12:00:00 TS 14.6765 81.7254 main 141 131 _________OP___ -1 14.8000 81.8000 TC 30 14.5531 81.6509 1 6 23
1941277N07088 1941 63 NI BB NOT_NAMED 1941-10-06 15:00:00 TS 14.9675 81.8500 main 131 108 _________PO___ -1 15.1350 81.9000 TC 30 14.8000 81.8000 1 7 20
1941277N07088 1941 63 NI BB NOT_NAMED 1941-10-06 18:00:00 TS 15.3231 81.9641 main 116 79 _________OP___ -1 15.5000 82.0000 TC 30 15.1463 81.9281 1 8 17
1941277N07088 1941 63 NI BB NOT_NAMED 1941-10-06 21:00:00 TS 15.7100 82.0872 main 79 46 _________PP___ -1 15.9000 82.1224 TC 30 15.5201 82.0519 1 8 15
1941277N07088 1941 63 NI BB NOT_NAMED 1941-10-07 00:00:00 TS 16.1044 82.1749 main 46 10 _________OP___ -1 16.3000 82.2000 TC 30 15.9088 82.1499 1 8 7
1941277N07088 1941 63 NI BB NOT_NAMED 1941-10-07 03:00:00 TS 16.4750 82.1900 main 10 0 _________PO___ -1 16.6500 82.1801 TC 30 16.3000 82.2000 1 7 356
1941277N07088 1941 63 NI BB NOT_NAMED 1941-10-07 06:00:00 TS 16.8314 82.1278 main 0 0 _________OP___ -1 17.0000 82.1000 TC 30 16.6628 82.1557 1 8 348
1941277N07088 1941 63 NI BB NOT_NAMED 1941-10-07 09:00:00 TS 17.2063 82.0293 main 0 0 _________PP___ -1 17.3850 81.9926 TC 30 17.0276 82.0659 1 8 346
1941277N07088 1941 63 NI BB NOT_NAMED 1941-10-07 12:00:00 TS 17.6017 81.9341 main 0 0 _________OP___ -1 17.8000 81.9000 TC 30 17.4035 81.9682 1 8 351
1941277N07088 1941 63 NI BB NOT_NAMED 1941-10-07 15:00:00 TS 18.0212 81.8850 main 0 0 _________PO___ -1 18.2425 81.8700 TC 30 17.8000 81.9000 1 9 358
1941277N07088 1941 63 NI BB NOT_NAMED 1941-10-07 18:00:00 TS 18.4641 81.8870 main 0 0 _________OP___ -1 18.7000 81.9000 TC 30 18.2283 81.8739 1 9 2
1941277N07088 1941 63 NI BB NOT_NAMED 1941-10-07 21:00:00 TS 18.9098 81.9255 main 0 0 _________PP___ -1 19.1425 81.9627 TC 30 18.6772 81.8884 1 9 9
1941277N07088 1941 63 NI BB NOT_NAMED 1941-10-08 00:00:00 TS 19.3688 82.0293 main 0 0 _________OP___ -1 19.6000 82.1000 TC 30 19.1375 81.9586 1 10 16
1941277N07088 1941 63 NI BB NOT_NAMED 1941-10-08 03:00:00 TS 19.8537 82.2062 main 0 0 _________PO___ -1 20.1075 82.3125 TC 30 19.6000 82.1000 1 10 22
1941277N07088 1941 63 NI BB NOT_NAMED 1941-10-08 06:00:00 TS 20.3290 82.4498 main 0 0 _________OP___ -1 20.6000 82.6000 TC 30 20.0580 82.2997 1 10 29
1941277N07088 1941 63 NI BB NOT_NAMED 1941-10-08 09:00:00 TS 20.7572 82.7354 main 0 0 _________PP___ -1 20.9997 82.8981 TC 30 20.5147 82.5727 1 11 36
1941277N07088 1941 63 NI BB NOT_NAMED 1941-10-08 12:00:00 TS 21.1820 83.1047 main 0 0 _________OP___ -1 21.4000 83.3000 TC 30 20.9640 82.9094 1 12 42
1941277N07088 1941 63 NI BB NOT_NAMED 1941-10-08 15:00:00 TS 21.6577 83.5996 main 0 0 _________PO___ -1 21.9155 83.8992 TC 30 21.4000 83.3000 1 14 45
1941277N07088 1941 63 NI BB NOT_NAMED 1941-10-08 18:00:00 TS 22.1403 84.1499 main 0 0 _________OP___ -1 22.4000 84.5000 TC 30 21.8806 83.7998 1 13 47
1941277N07088 1941 63 NI BB NOT_NAMED 1941-10-08 21:00:00 TS 22.5558 84.6387 main 0 0 _________PP___ -1 22.7748 84.9403 TC 30 22.3368 84.3371 1 11 48
1941277N07088 1941 63 NI BB NOT_NAMED 1941-10-09 00:00:00 TS 22.8622 85.0156 main 0 0 _________OP___ -1 23.0000 85.2000 TC 30 22.7244 84.8312 1 7 49
1941277N07088 1941 63 NI BB NOT_NAMED 1941-10-09 03:00:00 TS 23.0224 85.2264 main 0 0 _________PO___ -1 23.0449 85.2527 TC 30 23.0000 85.2000 1 3 50
1941277N07088 1941 63 NI BB NOT_NAMED 1941-10-09 06:00:00 TS 23.0570 85.2691 main 0 0 _________OP___ -1 23.0000 85.2000 TC 30 23.1141 85.3382 1 1 48
1941277N07088 1941 63 NI BB NOT_NAMED 1941-10-09 09:00:00 TS 23.0595 85.2721 main 0 0 _________PP___ -1 23.0000 85.2000 TC 30 23.1190 85.3442 1 0 0
1941277N07088 1941 63 NI BB NOT_NAMED 1941-10-09 12:00:00 TS 23.0322 85.2390 main 0 0 _________OP___ -1 23.0000 85.2000 TC 30 23.0645 85.2781 1 1 228
1941277N07088 1941 63 NI BB NOT_NAMED 1941-10-09 15:00:00 TS 23.0000 85.2000 main 0 0 _________PO___ -1 23.0000 85.2000 TC 30 23.0000 85.2000 1 0 235
1941277N07088 1941 63 NI BB NOT_NAMED 1941-10-09 18:00:00 TS 23.0000 85.2000 main 0 0 _________OP___ -1 23.0000 85.2000 TC 30 23.0000 85.2000 1 0 0
1941277N07088 1941 63 NI BB NOT_NAMED 1941-10-09 21:00:00 TS 23.0000 85.2000 main 0 0 _________PP___ -1 23.0000 85.2000 TC 30 23.0000 85.2000 1 0 0
1941277N07088 1941 63 NI BB NOT_NAMED 1941-10-10 00:00:00 TS 23.0000 85.2000 main 0 0 _________OP___ -1 23.0000 85.2000 TC 30 23.0000 85.2000 1 0 0
1941277N07088 1941 63 NI BB NOT_NAMED 1941-10-10 03:00:00 TS 23.0000 85.2000 main 0 0 _________PO___ -1 23.0000 85.2000 TC 30 23.0000 85.2000 1 0 0
1941277N07088 1941 63 NI BB NOT_NAMED 1941-10-10 06:00:00 TS 23.0000 85.2000 main 0 0 _________OP___ -1 23.0000 85.2000 TC 30 23.0000 85.2000 1 0 0
1941277N07088 1941 63 NI BB NOT_NAMED 1941-10-10 09:00:00 TS 23.0000 85.2000 main 0 0 _________PP___ -1 23.0000 85.2000 TC 30 23.0000 85.2000 1 0 0
1941277N07088 1941 63 NI BB NOT_NAMED 1941-10-10 12:00:00 TS 23.0000 85.2000 main 0 0 _________OP___ -1 23.0000 85.2000 TC 30 23.0000 85.2000 1 0 0
1941277N07088 1941 63 NI BB NOT_NAMED 1941-10-10 15:00:00 TS 23.0000 85.2000 main 0 0 _________PO___ -1 23.0000 85.2000 TC 30 23.0000 85.2000 1 0 0
1941277N07088 1941 63 NI BB NOT_NAMED 1941-10-10 18:00:00 TS 22.9877 85.1798 main 0 0 _________OP___ -1 23.0000 85.2000 TC 30 22.9755 85.1596 1 1 237
1941277N07088 1941 63 NI BB NOT_NAMED 1941-10-10 21:00:00 TS 22.9699 85.1477 main 0 0 _________PP___ -1 22.9850 85.1700 TC 30 22.9548 85.1254 1 0 0
1941277N07088 1941 63 NI BB NOT_NAMED 1941-10-11 00:00:00 TS 22.9783 85.1642 main 0 0 _________OP___ -1 23.0000 85.2000 TC 30 22.9566 85.1285 1 1 62
1941277N07088 1941 63 NI BB NOT_NAMED 1941-10-11 03:00:00 TS 23.0350 85.2775 main 0 0 _________PO___ -1 23.0700 85.3551 TC 30 23.0000 85.2000 1 3 59
1941277N07088 1941 63 NI BB NOT_NAMED 1941-10-11 06:00:00 TS 23.1535 85.4869 main 0 0 _________OP___ -1 23.2000 85.6000 TC 30 23.1070 85.3738 1 5 57
1941277N07088 1941 63 NI BB NOT_NAMED 1941-10-11 09:00:00 TS 23.3239 85.7548 main 0 0 _________PP___ -1 23.3926 85.8924 TC 30 23.2552 85.6172 1 6 55
1941277N07088 1941 63 NI BB NOT_NAMED 1941-10-11 12:00:00 TS 23.5129 86.0510 main 0 0 _________OP___ -1 23.6000 86.2000 TC 30 23.4258 85.9020 1 6 56
1941277N07088 1941 63 NI BB NOT_NAMED 1941-10-11 15:00:00 TS 23.6787 86.3251 main 0 0 _________PO___ -1 23.7574 86.4501 TC 30 23.6000 86.2000 1 6 57
1941277N07088 1941 63 NI BB NOT_NAMED 1941-10-11 18:00:00 TS 23.8218 86.5789 main 0 0 _________OP___ -1 23.9000 86.7000 TC 30 23.7631 86.4881 1 6 59
1941277N07088 1941 63 NI BB NOT_NAMED 1941-10-11 21:00:00 TS 23.9681 86.8538 main 0 0 _________PP___ -1 24.0477 86.9873 TC 30 23.9151 86.7649 1 6 60
1941277N07088 1941 63 NI BB NOT_NAMED 1941-10-12 00:00:00 TS 24.1064 87.1228 main 0 0 _________OP___ -1 24.2000 87.3000 TC 30 24.0596 87.0342 1 5 60
1941277N07088 1941 63 NI BB NOT_NAMED 1941-10-12 03:00:00 NR 24.2000 87.3000 main 0 __________O___ -1 TC 24.2000 87.3000 1 4 60

About IBTrACS Database

This database is a web-friendly format of International Best Track Archive for Climate Stewardship (IBTrACS), a global best track data archive curated by NOAA dating back to 1842.

Updated: 2021-10-08